Strona główna
METAR-TAF:

METAR-TAF

Lotnisko :

Monte Malanotte

Prato Nevoso, Włochy

Szerokość geograficzna: 44-15N, Długość geograficzna: 007-48E, wysokość: 1741 m

Aktualna obserwacja pogody

Raport powstał 37 minut temu, godzina 11:55 UTC
Wiatr 2 kt z kierunków zmiennych
Temperatura 24°C
Wilgotność 69%
Ciśnienie 1015 hPa
Widzialność 10 km lub więcej
Brak chmur poniżej 1500 m i brak chmur cumulonimbus

METAR: LIMY 171155Z VRB02KT CAVOK 24/18 Q1015 RMK SCT SCT200 VAL NIL VIS MIN 9999

czas: 14:32 (12:32 UTC)


TAF: brakujący

Obserwacja i prognoza pogody dla ponad 4000 lotnisk (raport METAR i TAF).

Dostępne stacje oznaczono żółtymi i czerwonymi punktami na mapie.

Najedź kursorem aby zobaczyć nazwę stacji.

Kliknij aby zobaczyć obserwacje i prognozy pogody.

Aby zmienić mapę: kliknij na zielony przycisk z czarnym krzyżykiem, aby powiększyć; na zielony przycisk z myślnikiem, aby pomniejszyć; na zielone strzałki, aby przejść do map sąsiednich.


METAR-TAF: